Pilot Magazine UKGA

About You

Log In Register UKGA membership

Flight planning

Flight planning New flightplan NOTAM map LARS map & NOTAMs Danger area, mil. & TRA activations Weather map GPS route download Find waypoints Your waypoints New waypoint

Forums

Forums Currently discussing "GP LAPL medical via CAA/Cellma"

Other items

Articles Events Links News Surveys Tips Other users Feedback UKGA membership About UKGA

METARs

UK

EGAA 231950Z AUTO 19013KT 160V220 9999 BKN018/// BKN045/// //////TCU 12/10 Q1010 REDZ
EGAC 231950Z AUTO 20016G24KT 9999 -RA OVC025/// 13/10 Q1010
EGAE 231520Z 20022KT 9999 -SHRA FEW028 SCT047 14/11 Q1008
EGBB 231950Z 18007KT 140V210 9999 OVC036 11/06 Q1021
EGBJ 231720Z 20009KT 9999 BKN026 BKN030 13/06 Q1021
EGCC 231950Z AUTO 18006KT 110V230 9999 OVC042 11/05 Q1019 NOSIG
EGCK 231950Z AUTO 18020KT 9999 BKN018/// OVC042/// 12/09 Q1016
EGCN 231950Z 15006KT 9999 OVC037 11/07 Q1021
EGDM 231850Z AUTO 19009KT 9999 OVC039/// 11/05 Q1023
EGDR 231850Z AUTO 17010KT 9999 // OVC046/// 13/09 Q1019
EGDY 231850Z AUTO 17006KT 9999 BKN046/// 12/07 Q1022
EGEO 231350Z 17013KT 3000 -RA FEW009 OVC022 11/10 Q1011
EGFF 231950Z AUTO 19013KT 9999 OVC048 13/07 Q1021
EGGD 231950Z AUTO 18008KT 9999 OVC040 11/06 Q1021
EGGP 231950Z 16014KT 9999 BKN045 12/06 Q1018
EGGW 231950Z AUTO 19004KT 150V230 9999 OVC036 11/08 Q1023
EGHC 231620Z 18021KT 9999 VCSH FEW022 SCT030 12/09 Q1019
EGHE 231620Z 18029KT 9999 -SHRA FEW020 SCT030 14/10 Q1019
EGHH 231950Z 19010KT 9999 OVC035 13/05 Q1023
EGHI 231950Z 19010KT 160V230 9999 BKN044 13/05 Q1023 
EGHQ 231950Z 17015KT 9999 FEW023 BKN040 12/08 Q1019
EGJA 231820Z 17012KT 9999 BKN037 13/05 Q1024
EGJB 231950Z 17011KT 9999 BKN033 12/06 Q1023
EGJJ 231950Z 19009KT 160V220 9999 BKN031 12/06 Q1023
EGKA 231850Z 19011KT 9999 SCT041 13/08 Q1024
EGKB 231950Z 17007KT 9999 SCT038 10/07 Q1024 
EGKK 231950Z 18004KT 150V220 9999 BKN038 12/06 Q1024
EGLC 231950Z AUTO 17004KT 140V210 9999 OVC041 13/07 Q1024
EGLF 231950Z AUTO 17005KT 9999 OVC037/// 11/07 Q1023
EGLL 231950Z AUTO 19006KT 150V220 9999 OVC039 12/07 Q1024
EGMC 231950Z 17007KT 9999 FEW048 11/07 Q1024
EGMD 231950Z AUTO 21008KT 0450 -RA FG FEW039/// OVC046/// 12/08 Q1025
EGNH 231850Z 17014KT 9999 BKN032 12/07 Q1018
EGNJ 231950Z 19010KT 9999 BKN034 12/07 Q1021
EGNM 231950Z 18011KT 9999 BKN040 10/05 Q1019
EGNR 231650Z 16010KT 9999 VCSH BKN033 12/06 Q1019
EGNS 231950Z 19024KT 9999 OVC017 14/11 Q1014
EGNT 231950Z 19008KT 140V230 9999 FEW030 11/06 Q1015
EGNV 231950Z 19019KT 9999 BKN047 11/05 Q1017
EGNX 231950Z 20012KT 9999 BKN035 11/05 Q1021
EGOM 231850Z AUTO 21016KT 9999 FEW032/// OVC039/// 09/08 Q1015
EGOP 231850Z AUTO 19027KT 8000 // FEW028/// SCT032/// BKN047/// 13/09 Q1019
EGOS 231850Z AUTO 16010KT 9999 OVC045/// 11/05 Q1019
EGOV 231850Z AUTO 19028KT 9999 FEW018/// SCT024/// BKN043/// 13/09 Q1016 REDZ
EGPA 231950Z AUTO 19015KT 9999 OVC047/// 12/09 Q1006
EGPB 231950Z AUTO 20018KT 9999 BKN046/// 12/10 Q1006
EGPC 231950Z AUTO 18016G27KT 150V220 9999 NCD 13/08 Q1006
EGPD 231950Z AUTO 20014KT 9999 SCT038 12/08 Q1010
EGPE 231950Z AUTO 19004KT 140V220 9999 FEW042/// 13/09 Q1007
EGPF 231950Z AUTO 18017G27KT 9999 -RA BKN044/// //////TCU 12/10 Q1011
EGPH 231950Z 22017KT 9999 FEW029 13/09 Q1011
EGPI 231920Z AUTO 17019G29KT 120V190 7000 -RA SCT013/// 12/11 Q1008
EGPK 231950Z 18018KT 9999 -RA SCT020 13/10 Q1011
EGPL 231950Z AUTO 18019KT 6000 -RA BKN002/// OVC008/// 12/11 Q1003
EGPN 231450Z 21015KT 9999 FEW020 BKN030 13/09 Q1013
EGPO 231950Z AUTO 19022KT 8000 -RA BKN002/// OVC010/// 12/11 Q1003
EGPU 231920Z AUTO 18024KT 2100 BR BKN004/// BKN012/// 12/12 Q1005
EGQK 231850Z AUTO 18009KT 9999 FEW046/// SCT080/// 13/07 Q1007
EGQL 231950Z 21018KT 9999 FEW030 BKN050 BKN140 13/09 Q1011 RMK BLU
EGQM 231950Z AUTO 18015KT 9999 FEW048/// 11/07 Q1015
EGQS 231950Z 19012KT CAVOK 13/08 Q1007 RMK BLU
EGSH 231950Z AUTO 17006KT 120V220 9999 OVC041/// 11/07 Q1024
EGSS 231950Z AUTO 17007KT 9999 OVC039 11/08 Q1024
EGSY 231550Z 20010KT 9999 BKN037 12/06 Q1022
EGTC 231620Z 18006KT 9999 BKN041 11/07 Q1023
EGTE 231650Z 19013KT 9999 BKN045 13/05 Q1022
EGTK 231950Z 20006KT 9999 FEW031 BKN038 11/07 Q1022
EGUB 231850Z AUTO 18006KT 9999 // BKN036/// BKN041/// 11/07 Q1023
EGUL 231956Z AUTO 18007KT 9999 OVC040 12/M01 A3021 RMK AO2 SLP234 T01161012 $
EGUN 231956Z 18008KT 9999 BKN040 11/09 A3021 RMK AO2A SLP233 T01140091 $
EGUW 231850Z AUTO 18006KT 9999 BKN039/// 11/07 Q1024
EGVA 231956Z AUTO 19009KT 9999 OVC042 11/07 A3016 RMK AO2 SLP218 T01130068 $
EGVN 231950Z 18006KT 9999 OVC040 11/06 Q1022 NOSIG RMK BLU BLU
EGVO 231850Z AUTO 18007KT 9999 OVC036/// 11/06 Q1023
EGVP 231850Z AUTO 18007KT 9999 OVC036/// 11/07 Q1023
EGWC 231350Z 18011KT 9999 SCT022 BKN026 12/06 Q1022
EGWU 231950Z 19005KT 9999 BKN039 12/07 Q1023 NOSIG RMK BLU BLU
EGXC 231950Z 19010KT 9999 OVC036 11/07 Q1022 RMK BLU
EGXE 230650Z AUTO 21009KT 9999 OVC045/// 10/08 Q1021
EGXP 231850Z AUTO 20010KT 9999 // OVC036/// 12/06 Q1021
EGXS 231850Z AUTO 17007KT 9999 // OVC038/// 11/07 Q1021
EGXT 231850Z AUTO 18008KT 9999 // OVC037/// 11/07 Q1022
EGXV 231950Z AUTO 19006KT 9999 OVC037/// 11/06 Q1020
EGXW 231850Z AUTO 19011KT 9999 OVC036/// 11/06 Q1021
EGXZ 231950Z AUTO 16012KT 9999 OVC042/// 11/06 Q1018
EGYD 231850Z AUTO 19011KT 9999 // OVC035/// 11/07 Q1022
EGYM 231850Z AUTO 16009KT 9999 OVC039/// 11/07 Q1023
EGYP 231950Z 24021KT 9999 SCT040 07/M04 Q0986

About You

Log In Register UKGA membership

Airfields

Interactive airfield map Search by name Search by postcode Search by location Fuel prices Pilot reviews Latest
(No favourites selected)

Flight planning

Flight planning New flightplan NOTAM map LARS map & NOTAMs Danger area, mil. & TRA activations Weather map GPS route download Find waypoints Your waypoints New waypoint

Forums

Forums Currently discussing "GP LAPL medical via CAA/Cellma"

Other items

Articles Events Links News Surveys Tips Other users Feedback UKGA membership About UKGA